Time;durP1;ratioP1;P1;durP2;ratioP2;P2;SDS_P1;SDS_P2;PMS_P1;PMS_P2;Temp;Humidity;BMP_temperature;BMP_pressure;BME280_temperature;BME280_humidity;BME280_pressure;Samples;Min_cycle;Max_cycle;Signal;HPM_P1;HPM_P2
2022/12/31 00:01:24;;;;;;;15.93;14.53;;;;;;;4.38;97.82;93807.84;5090842;28;20185;-73
2022/12/31 00:03:51;;;;;;;16.80;15.27;;;;;;;4.57;97.94;93800.94;5092049;28;20236;-73
2022/12/31 00:06:21;;;;;;;16.17;14.53;;;;;;;4.72;96.92;93799.59;5090951;28;20185;-73
2022/12/31 00:08:47;;;;;;;15.23;13.83;;;;;;;4.88;96.43;93803.41;5090204;28;20242;-73
2022/12/31 00:11:13;;;;;;;14.07;12.87;;;;;;;4.73;96.57;93779.69;5090774;28;20200;-73
2022/12/31 00:13:40;;;;;;;14.43;12.53;;;;;;;4.86;96.51;93795.88;5091493;28;20192;-73
2022/12/31 00:16:07;;;;;;;14.03;12.73;;;;;;;4.82;96.95;93783.56;5088855;28;20236;-73
2022/12/31 00:18:33;;;;;;;14.33;13.23;;;;;;;4.99;96.42;93784.59;5090408;28;20191;-74
2022/12/31 00:20:58;;;;;;;13.17;11.83;;;;;;;5.08;96.25;93800.59;5085991;28;20212;-74
2022/12/31 00:23:24;;;;;;;13.70;12.80;;;;;;;5.01;96.16;93777.41;5090086;28;20216;-74
2022/12/31 00:25:49;;;;;;;14.23;13.13;;;;;;;5.18;96.28;93793.94;5090652;28;20225;-74
2022/12/31 00:28:14;;;;;;;14.87;13.77;;;;;;;5.08;96.90;93783.28;5091647;28;20192;-73
2022/12/31 00:30:40;;;;;;;13.97;12.90;;;;;;;5.27;96.26;93803.00;5072357;28;20229;-74
2022/12/31 00:33:05;;;;;;;14.67;13.37;;;;;;;5.32;95.87;93786.81;5090469;28;20279;-73
2022/12/31 00:35:31;;;;;;;14.47;13.37;;;;;;;5.56;95.14;93802.22;5091367;28;20228;-73
2022/12/31 00:37:56;;;;;;;14.67;13.47;;;;;;;5.57;94.83;93797.84;5090429;28;20200;-74
2022/12/31 00:40:21;;;;;;;13.67;12.57;;;;;;;5.49;94.91;93811.91;5090460;28;20235;-73
2022/12/31 00:42:47;;;;;;;13.87;12.77;;;;;;;5.56;95.29;93811.78;5090546;28;20204;-73
2022/12/31 00:45:12;;;;;;;13.73;12.70;;;;;;;5.37;95.65;93794.72;5089523;28;20220;-73
2022/12/31 00:47:37;;;;;;;13.97;12.80;;;;;;;5.51;95.90;93819.44;5089338;28;20836;-74
2022/12/31 00:50:03;;;;;;;14.17;13.07;;;;;;;5.49;95.61;93814.47;5089844;28;20235;-73
2022/12/31 00:52:28;;;;;;;14.30;13.40;;;;;;;5.45;95.39;93815.13;5089299;28;20252;-73
2022/12/31 00:54:54;;;;;;;13.67;12.67;;;;;;;5.40;95.67;93813.19;5089225;28;20240;-73
2022/12/31 00:57:19;;;;;;;12.97;12.13;;;;;;;5.32;96.70;93815.28;5089276;28;20267;-73
2022/12/31 00:59:44;;;;;;;14.43;13.20;;;;;;;5.41;97.45;93838.09;5089418;28;20228;-73
2022/12/31 01:02:10;;;;;;;14.00;12.90;;;;;;;5.46;96.73;93830.47;5090606;28;20303;-73
2022/12/31 01:04:35;;;;;;;14.77;13.37;;;;;;;5.57;96.36;93836.69;5090231;28;20881;-73
2022/12/31 01:07:01;;;;;;;14.93;13.63;;;;;;;5.61;95.60;93835.25;5089312;28;20188;-73
2022/12/31 01:09:26;;;;;;;16.37;14.87;;;;;;;5.70;95.70;93833.94;5089250;28;20239;-73
2022/12/31 01:11:51;;;;;;;16.63;15.13;;;;;;;5.60;95.57;93818.13;5090290;28;20185;-73
2022/12/31 01:14:18;;;;;;;17.30;15.70;;;;;;;5.70;95.58;93833.94;5089130;28;20240;-73
2022/12/31 01:16:49;;;;;;;19.07;15.77;;;;;;;5.88;94.96;93839.13;5089777;28;20193;-73
2022/12/31 01:19:22;;;;;;;18.67;16.57;;;;;;;5.87;94.78;93833.13;5088927;28;20236;-73
2022/12/31 01:21:48;;;;;;;19.73;17.23;;;;;;;5.89;94.71;93836.31;5089370;28;20193;-74
2022/12/31 01:24:15;;;;;;;17.10;15.63;;;;;;;5.79;94.95;93832.63;5088135;28;20225;-73
2022/12/31 01:26:41;;;;;;;17.87;16.20;;;;;;;5.65;95.60;93836.41;5091056;28;20180;-73
2022/12/31 01:29:08;;;;;;;17.67;15.03;;;;;;;5.45;96.35;93828.09;5088996;28;20229;-73
2022/12/31 01:31:35;;;;;;;17.60;15.80;;;;;;;5.48;96.81;93850.97;5088133;28;20207;-73
2022/12/31 01:34:00;;;;;;;19.40;17.43;;;;;;;5.45;96.79;93846.97;5089031;28;20192;-73
2022/12/31 01:36:29;;;;;;;23.37;18.07;;;;;;;5.55;96.32;93843.88;5088924;28;20929;-73
2022/12/31 01:38:56;;;;;;;22.00;18.10;;;;;;;5.52;96.17;93846.91;5089200;28;20179;-73
2022/12/31 01:41:36;;;;;;;20.13;17.83;;;;;;;5.42;96.61;93844.03;5088999;28;20165;-73
2022/12/31 01:44:22;;;;;;;20.00;16.53;;;;;;;5.25;97.08;93846.41;5088963;28;20228;-73
2022/12/31 01:46:59;;;;;;;17.70;15.90;;;;;;;5.03;97.62;93837.47;5058937;28;20212;-73
2022/12/31 01:49:49;;;;;;;23.70;15.77;;;;;;;5.06;97.58;93841.47;5088902;28;20235;-73
2022/12/31 01:52:43;;;;;;;18.93;16.63;;;;;;;4.94;98.67;93829.22;5088854;28;20188;-73
2022/12/31 01:55:24;;;;;;;17.07;15.47;;;;;;;4.81;99.13;93841.47;5086714;28;20236;-73
2022/12/31 01:57:54;;;;;;;20.43;16.33;;;;;;;4.79;99.35;93843.50;5089222;28;20184;-73
2022/12/31 02:00:20;;;;;;;18.10;16.30;;;;;;;4.56;100.00;93846.66;5088398;28;20228;-73
2022/12/31 02:02:45;;;;;;;23.83;17.00;;;;;;;4.44;100.00;93853.53;5089841;28;20201;-73
2022/12/31 02:05:24;;;;;;;18.07;16.20;;;;;;;4.44;100.00;93848.38;5088340;28;20232;-72
2022/12/31 02:07:52;;;;;;;17.30;15.63;;;;;;;4.50;100.00;93851.88;5088823;28;20232;-73
2022/12/31 02:10:17;;;;;;;17.47;15.87;;;;;;;4.27;100.00;93860.22;5087775;28;20245;-74
2022/12/31 02:12:43;;;;;;;17.63;15.97;;;;;;;4.29;100.00;93860.81;5089392;28;20177;-75
2022/12/31 02:15:09;;;;;;;17.63;15.60;;;;;;;4.31;100.00;93861.38;5088410;28;20224;-74
2022/12/31 02:17:34;;;;;;;17.20;15.50;;;;;;;4.33;100.00;93864.56;5088983;28;20173;-73
2022/12/31 02:20:11;;;;;;;17.03;15.40;;;;;;;4.23;100.00;93866.81;5089024;28;20228;-73
2022/12/31 02:23:18;;;;;;;17.93;16.23;;;;;;;4.23;100.00;93868.59;5103461;28;20224;-73
2022/12/31 02:26:02;;;;;;;18.47;16.50;;;;;;;4.14;100.00;93870.63;5037020;28;20252;-74
2022/12/31 02:28:27;;;;;;;18.10;16.13;;;;;;;4.01;100.00;93868.16;5034184;28;20209;-73
2022/12/31 02:31:03;;;;;;;17.83;16.03;;;;;;;4.04;100.00;93867.72;5067983;28;20273;-73
2022/12/31 02:33:31;;;;;;;17.70;15.80;;;;;;;4.11;100.00;93878.81;5088110;28;20199;-73
2022/12/31 02:36:01;;;;;;;17.57;15.37;;;;;;;3.98;100.00;93858.22;5088001;28;20254;-74
2022/12/31 02:38:39;;;;;;;18.23;16.33;;;;;;;4.00;100.00;93882.03;5088646;28;20207;-73
2022/12/31 02:41:05;;;;;;;16.97;15.37;;;;;;;4.05;100.00;93874.47;5088389;28;20237;-73
2022/12/31 02:43:30;;;;;;;16.23;14.63;;;;;;;4.18;100.00;93878.78;5093644;28;20215;-74
2022/12/31 02:46:22;;;;;;;17.73;16.13;;;;;;;4.18;100.00;93881.34;5091809;28;20702;-73
2022/12/31 02:48:50;;;;;;;15.73;14.27;;;;;;;4.17;100.00;93888.31;5092287;28;20252;-73
2022/12/31 02:51:29;;;;;;;16.37;14.60;;;;;;;4.08;100.00;93874.06;5091654;28;20886;-73
2022/12/31 02:54:17;;;;;;;15.90;14.40;;;;;;;4.04;100.00;93883.25;5091230;28;20219;-73
2022/12/31 02:57:14;;;;;;;15.30;13.83;;;;;;;4.03;100.00;93875.69;5091434;28;20200;-73
2022/12/31 03:02:34;;;;;;;17.60;14.10;;;;;;;3.84;100.00;93871.41;5090517;28;20215;-73
2022/12/31 03:05:01;;;;;;;15.00;13.70;;;;;;;3.88;100.00;93885.50;5091820;28;20247;-73
2022/12/31 03:07:29;;;;;;;15.33;14.20;;;;;;;3.83;100.00;93875.78;5091999;28;20192;-73
2022/12/31 03:09:55;;;;;;;14.63;13.60;;;;;;;3.69;100.00;93868.31;5093001;28;20216;-74
2022/12/31 03:12:46;;;;;;;14.27;13.17;;;;;;;3.64;100.00;93861.19;5091964;28;20181;-73
2022/12/31 03:15:19;;;;;;;16.43;14.63;;;;;;;3.69;100.00;93873.50;5092734;28;20228;-73
2022/12/31 03:18:08;;;;;;;15.87;14.50;;;;;;;3.51;100.00;93878.50;5090638;28;20935;-73
2022/12/31 03:23:33;;;;;;;15.73;14.23;;;;;;;3.55;100.00;93867.56;5090520;28;20207;-73
2022/12/31 03:25:59;;;;;;;15.93;14.60;;;;;;;3.43;100.00;93848.56;5091337;28;20225;-74
2022/12/31 03:28:27;;;;;;;15.37;13.97;;;;;;;3.43;100.00;93858.09;5092839;28;20257;-73
2022/12/31 03:30:56;;;;;;;16.00;14.60;;;;;;;3.43;100.00;93864.03;5092585;28;20212;-73
2022/12/31 03:33:22;;;;;;;15.93;14.57;;;;;;;3.43;100.00;93855.50;5091412;28;20177;-73
2022/12/31 03:35:48;;;;;;;15.20;13.83;;;;;;;3.44;100.00;93859.69;5091454;28;20233;-73
2022/12/31 03:38:15;;;;;;;15.87;14.37;;;;;;;3.18;100.00;93820.06;5090422;28;20188;-73
2022/12/31 03:40:43;;;;;;;15.87;14.47;;;;;;;3.51;100.00;93868.19;5090786;28;20255;-73
2022/12/31 03:43:09;;;;;;;17.20;15.40;;;;;;;3.43;100.00;93863.25;5091243;28;20204;-74
2022/12/31 03:45:35;;;;;;;16.40;14.77;;;;;;;3.45;100.00;93866.44;5091420;28;20311;-73
2022/12/31 03:48:01;;;;;;;17.80;15.90;;;;;;;3.33;100.00;93856.72;5091741;28;20177;-74
2022/12/31 03:50:27;;;;;;;17.27;15.57;;;;;;;3.40;100.00;93872.19;5090479;28;20561;-73
2022/12/31 03:52:53;;;;;;;17.07;15.47;;;;;;;3.52;100.00;93873.13;5089268;28;20180;-73
2022/12/31 03:55:18;;;;;;;16.00;14.47;;;;;;;3.33;100.00;93862.91;5089546;28;20224;-73
2022/12/31 03:57:44;;;;;;;16.97;15.27;;;;;;;3.43;100.00;93879.53;5090831;28;20196;-73
2022/12/31 04:00:13;;;;;;;14.90;13.57;;;;;;;3.30;100.00;93875.22;5091570;28;20245;-73
2022/12/31 04:02:39;;;;;;;15.30;13.83;;;;;;;3.29;100.00;93883.16;5090069;28;20253;-72
2022/12/31 04:05:05;;;;;;;14.80;13.53;;;;;;;3.32;100.00;93887.91;5090436;28;20220;-73
2022/12/31 04:07:31;;;;;;;13.80;12.80;;;;;;;3.31;100.00;93881.94;5090582;28;20173;-73
2022/12/31 04:09:57;;;;;;;15.30;14.00;;;;;;;3.21;100.00;93873.03;5090075;28;20296;-73
2022/12/31 04:12:22;;;;;;;15.50;14.00;;;;;;;3.20;100.00;93864.53;5091075;28;20180;-73
2022/12/31 04:14:48;;;;;;;18.93;17.20;;;;;;;3.25;100.00;93881.97;5089942;28;20231;-73
2022/12/31 04:17:13;;;;;;;17.97;16.13;;;;;;;3.22;100.00;93882.38;5091282;28;20177;-73
2022/12/31 04:19:38;;;;;;;15.93;14.43;;;;;;;3.14;100.00;93885.19;5090285;28;20233;-73
2022/12/31 04:22:04;;;;;;;15.67;14.20;;;;;;;3.09;100.00;93882.41;5089981;28;20216;-73
2022/12/31 04:24:29;;;;;;;13.93;12.77;;;;;;;3.15;100.00;93881.59;5089333;28;20229;-73
2022/12/31 04:26:55;;;;;;;15.93;13.37;;;;;;;3.11;100.00;93886.38;5090597;28;20199;-73
2022/12/31 04:29:21;;;;;;;13.50;12.20;;;;;;;2.92;100.00;93861.44;5089600;28;20228;-73
2022/12/31 04:31:46;;;;;;;12.87;11.97;;;;;;;3.04;100.00;93872.69;5089934;28;20205;-73
2022/12/31 04:34:11;;;;;;;14.47;13.27;;;;;;;2.84;100.00;93840.19;5088724;28;20224;-73
2022/12/31 04:36:37;;;;;;;14.33;13.17;;;;;;;3.18;100.00;93896.69;5090187;28;20204;-73
2022/12/31 04:39:02;;;;;;;14.63;13.33;;;;;;;3.25;100.00;93900.06;5089530;28;20228;-73
2022/12/31 04:41:28;;;;;;;15.80;14.17;;;;;;;3.10;100.00;93891.72;5089654;28;20226;-73
2022/12/31 04:43:56;;;;;;;21.73;15.47;;;;;;;3.18;100.00;93910.38;5090018;28;20212;-73
2022/12/31 04:46:24;;;;;;;20.70;17.37;;;;;;;3.12;100.00;93892.31;5090541;28;20212;-73
2022/12/31 04:48:50;;;;;;;19.50;15.67;;;;;;;3.17;100.00;93900.25;5088654;28;20200;-73
2022/12/31 04:51:15;;;;;;;14.87;13.57;;;;;;;3.07;100.00;93898.09;5091269;28;20177;-73
2022/12/31 04:53:42;;;;;;;16.60;15.00;;;;;;;3.22;100.00;93908.19;5089740;28;20193;-73
2022/12/31 04:56:08;;;;;;;14.33;13.03;;;;;;;3.01;100.00;93898.91;5068897;28;20241;-73
2022/12/31 04:58:35;;;;;;;15.17;13.90;;;;;;;3.09;100.00;93919.34;5069992;28;20673;-73
2022/12/31 05:01:00;;;;;;;16.77;15.10;;;;;;;3.14;100.00;93910.97;5087158;28;20221;-73
2022/12/31 05:03:26;;;;;;;16.67;15.07;;;;;;;3.03;100.00;93914.19;5089304;28;20268;-73
2022/12/31 05:05:52;;;;;;;16.67;15.23;;;;;;;2.96;100.00;93918.53;5088650;28;20225;-74
2022/12/31 05:08:19;;;;;;;14.23;12.83;;;;;;;2.99;100.00;93918.13;5089046;28;20226;-73
2022/12/31 05:10:47;;;;;;;14.33;12.87;;;;;;;3.03;100.00;93927.88;5089525;28;20227;-73
2022/12/31 05:13:13;;;;;;;13.40;12.43;;;;;;;2.94;100.00;93923.88;5090012;28;20180;-73
2022/12/31 05:15:39;;;;;;;13.77;12.57;;;;;;;2.84;100.00;93920.94;5089415;28;20227;-73
2022/12/31 05:18:05;;;;;;;13.30;12.10;;;;;;;2.82;100.00;93922.13;5089779;28;20189;-73
2022/12/31 05:20:30;;;;;;;14.53;13.33;;;;;;;2.97;100.00;93941.53;5089696;28;20284;-73
2022/12/31 05:22:55;;;;;;;14.20;13.00;;;;;;;2.96;100.00;93936.59;5088875;28;20235;-73
2022/12/31 05:25:21;;;;;;;14.47;13.37;;;;;;;3.03;100.00;93950.28;5089561;28;20216;-73
2022/12/31 05:27:46;;;;;;;14.73;13.30;;;;;;;3.09;100.00;93952.88;5089590;28;20172;-74
2022/12/31 05:30:12;;;;;;;12.73;11.73;;;;;;;3.12;100.00;93956.81;5088566;28;20253;-73
2022/12/31 05:32:37;;;;;;;14.03;13.03;;;;;;;3.02;100.00;93948.69;5089271;28;20197;-73
2022/12/31 05:35:04;;;;;;;13.97;12.97;;;;;;;3.09;100.00;93952.88;5088881;28;20220;-73
2022/12/31 05:37:30;;;;;;;14.87;13.40;;;;;;;3.00;100.00;93955.84;5090161;28;20191;-73
2022/12/31 05:39:56;;;;;;;14.53;13.33;;;;;;;2.88;100.00;93941.97;5087599;28;20212;-74
2022/12/31 05:42:22;;;;;;;15.00;13.53;;;;;;;3.01;100.00;93957.44;5088462;28;20177;-73
2022/12/31 05:44:47;;;;;;;14.87;13.40;;;;;;;3.05;100.00;93949.09;5088679;28;20226;-73
2022/12/31 05:47:13;;;;;;;16.13;14.63;;;;;;;3.02;100.00;93949.47;5088371;28;20177;-73
2022/12/31 05:49:38;;;;;;;15.23;13.83;;;;;;;3.02;100.00;93959.00;5089001;28;20232;-73
2022/12/31 05:52:04;;;;;;;15.87;14.27;;;;;;;2.99;100.00;93949.09;5090163;28;20204;-73
2022/12/31 05:54:29;;;;;;;16.93;15.40;;;;;;;2.91;100.00;93941.56;5088490;28;20228;-73
2022/12/31 05:56:55;;;;;;;15.27;13.23;;;;;;;2.95;100.00;93956.44;5089085;28;20192;-73
2022/12/31 05:59:20;;;;;;;16.23;14.83;;;;;;;2.97;100.00;93951.88;5089599;28;20254;-73
2022/12/31 06:01:46;;;;;;;16.80;15.13;;;;;;;2.89;100.00;93951.28;5088864;28;20193;-73
2022/12/31 06:04:11;;;;;;;16.17;14.70;;;;;;;2.89;100.00;93953.88;5088731;28;20236;-73
2022/12/31 06:06:36;;;;;;;15.83;14.33;;;;;;;2.85;100.00;93947.50;5088952;28;20214;-74
2022/12/31 06:09:02;;;;;;;15.00;13.50;;;;;;;3.05;100.00;93958.63;5087586;28;20228;-73
2022/12/31 06:11:27;;;;;;;16.03;14.47;;;;;;;2.85;100.00;93943.16;5089589;28;20326;-73
2022/12/31 06:13:53;;;;;;;15.20;14.00;;;;;;;3.16;100.00;93965.75;5089007;28;20191;-73
2022/12/31 06:16:18;;;;;;;15.13;14.03;;;;;;;3.16;100.00;93976.06;5092057;28;20189;-73
2022/12/31 06:18:46;;;;;;;14.70;13.57;;;;;;;3.00;100.00;93955.84;5092987;28;20199;-73
2022/12/31 06:21:11;;;;;;;15.73;14.27;;;;;;;3.04;100.00;93955.25;5093227;28;20188;-73
2022/12/31 06:23:39;;;;;;;15.73;14.43;;;;;;;3.13;100.00;93981.63;5094291;28;20227;-73
2022/12/31 06:26:05;;;;;;;14.70;13.30;;;;;;;3.01;100.00;93981.44;5092277;28;20251;-73
2022/12/31 06:28:31;;;;;;;16.43;14.93;;;;;;;2.99;100.00;93982.63;5092303;28;20216;-73
2022/12/31 06:31:06;;;;;;;16.03;14.63;;;;;;;3.12;100.00;93990.34;5092206;28;20228;-73
2022/12/31 06:33:32;;;;;;;17.27;15.67;;;;;;;3.20;100.00;93987.59;5092610;28;20195;-73
2022/12/31 06:35:59;;;;;;;17.87;16.13;;;;;;;3.29;100.00;93983.78;5093062;28;20228;-73
2022/12/31 06:38:26;;;;;;;25.27;17.53;;;;;;;3.26;100.00;93984.19;5092286;28;20184;-73
2022/12/31 06:40:52;;;;;;;18.40;16.73;;;;;;;3.30;100.00;93996.50;5094221;28;20243;-73
2022/12/31 06:43:17;;;;;;;20.93;18.23;;;;;;;3.46;100.00;94003.03;5092576;28;20224;-74
2022/12/31 06:45:43;;;;;;;23.83;18.93;;;;;;;3.44;100.00;94002.44;5093006;28;20232;-73
2022/12/31 06:48:08;;;;;;;28.80;21.70;;;;;;;3.43;100.00;94007.78;5093334;28;20192;-74
2022/12/31 06:50:34;;;;;;;23.43;20.80;;;;;;;3.44;100.00;94009.41;5091401;28;20244;-73
2022/12/31 06:52:59;;;;;;;23.53;20.03;;;;;;;3.42;100.00;94016.53;5092428;28;20242;-73
2022/12/31 06:55:25;;;;;;;25.93;19.13;;;;;;;3.48;100.00;94006.22;5091862;28;20219;-73
2022/12/31 06:57:51;;;;;;;19.00;16.43;;;;;;;3.61;100.00;94026.81;5091937;28;20205;-73
2022/12/31 07:00:17;;;;;;;20.27;17.43;;;;;;;3.64;100.00;94013.53;5091398;28;20231;-73
2022/12/31 07:03:10;;;;;;;21.40;19.17;;;;;;;3.80;100.00;94031.16;5091721;28;20189;-73
2022/12/31 07:05:41;;;;;;;26.67;19.43;;;;;;;3.92;100.00;94023.59;5090460;28;20224;-73
2022/12/31 07:08:17;;;;;;;27.50;19.90;;;;;;;4.01;100.00;94035.28;5090351;28;20196;-73
2022/12/31 07:10:58;;;;;;;23.57;20.80;;;;;;;4.09;100.00;94035.88;5090793;28;20220;-73
2022/12/31 07:13:49;;;;;;;25.43;19.70;;;;;;;4.14;100.00;94036.03;5091158;28;20195;-73
2022/12/31 07:16:35;;;;;;;20.17;18.03;;;;;;;4.21;100.00;94034.22;5090273;28;20227;-73
2022/12/31 07:19:14;;;;;;;18.33;16.50;;;;;;;4.22;100.00;94032.41;5089762;28;20200;-73
2022/12/31 07:21:40;;;;;;;18.23;16.33;;;;;;;4.31;100.00;94039.72;5091764;28;20193;-73
2022/12/31 07:24:07;;;;;;;19.47;17.40;;;;;;;4.35;100.00;94040.94;5093982;28;20232;-73
2022/12/31 07:27:00;;;;;;;20.53;18.03;;;;;;;4.45;100.00;94049.03;5091775;28;20188;-73
2022/12/31 07:29:35;;;;;;;18.60;16.63;;;;;;;4.55;100.00;94046.81;5090456;28;20315;-73
2022/12/31 07:32:21;;;;;;;20.50;16.83;;;;;;;4.66;100.00;94047.94;5091454;28;20188;-73
2022/12/31 07:34:53;;;;;;;19.50;17.33;;;;;;;4.68;100.00;94051.91;5090847;28;20227;-73
2022/12/31 07:38:01;;;;;;;24.53;19.73;;;;;;;4.74;100.00;94039.94;5089562;28;20191;-73
2022/12/31 07:40:52;;;;;;;24.10;18.53;;;;;;;5.05;100.00;94052.06;5089990;28;20239;-73
2022/12/31 07:43:45;;;;;;;19.00;17.20;;;;;;;4.85;100.00;94014.22;5090362;28;20223;-73
2022/12/31 07:46:29;;;;;;;22.37;15.67;;;;;;;5.19;100.00;94058.75;5069799;28;20205;-74
2022/12/31 07:48:55;;;;;;;16.87;15.17;;;;;;;5.35;100.00;94063.41;5070382;28;20185;-73
2022/12/31 07:51:20;;;;;;;20.23;17.80;;;;;;;5.57;98.03;94064.63;5072000;28;20193;-74
2022/12/31 07:53:46;;;;;;;18.90;16.90;;;;;;;5.66;97.03;94068.53;5069950;28;20193;-73
2022/12/31 07:56:12;;;;;;;26.50;16.47;;;;;;;5.64;97.56;94065.34;5091165;28;20189;-75
2022/12/31 07:58:37;;;;;;;23.57;17.63;;;;;;;5.76;96.73;94076.63;5089700;28;20189;-74
2022/12/31 08:01:04;;;;;;;19.83;17.80;;;;;;;5.65;96.75;94059.19;5090397;28;20288;-74
2022/12/31 08:04:06;;;;;;;22.90;18.50;;;;;;;5.61;98.11;94074.38;5090344;28;20200;-73
2022/12/31 08:06:44;;;;;;;24.90;18.67;;;;;;;6.02;96.49;94076.41;5047295;28;20223;-73
2022/12/31 08:09:41;;;;;;;25.07;19.80;;;;;;;5.91;95.72;94057.19;5073862;28;20220;-74
2022/12/31 08:12:07;;;;;;;23.97;19.33;;;;;;;5.93;95.84;94062.16;5092649;28;20192;-74
2022/12/31 08:14:44;;;;;;;24.87;20.07;;;;;;;6.09;96.24;94072.75;5090127;28;20224;-73
2022/12/31 08:17:12;;;;;;;24.47;19.80;;;;;;;5.93;95.42;94056.97;5091931;28;20801;-73
2022/12/31 08:19:38;;;;;;;26.00;20.20;;;;;;;6.07;95.08;94087.72;5090265;28;20880;-73
2022/12/31 08:22:36;;;;;;;21.57;18.90;;;;;;;5.91;95.77;94074.53;5090744;28;20198;-73
2022/12/31 08:25:11;;;;;;;22.17;18.90;;;;;;;6.00;96.28;94074.03;5090209;28;20288;-73
2022/12/31 08:28:02;;;;;;;23.03;18.00;;;;;;;6.28;94.29;94071.75;5091827;28;20183;-73
2022/12/31 08:30:57;;;;;;;22.57;18.77;;;;;;;6.24;93.26;94070.56;5054978;28;20224;-73
2022/12/31 08:33:31;;;;;;;26.93;20.03;;;;;;;6.08;94.37;94070.38;5086405;28;20238;-74
2022/12/31 08:36:32;;;;;;;24.20;19.30;;;;;;;6.40;93.28;94071.78;5089692;28;20226;-74
2022/12/31 08:39:10;;;;;;;22.73;19.97;;;;;;;6.34;93.91;94064.88;5089116;28;20195;-74
2022/12/31 08:41:45;;;;;;;26.23;19.30;;;;;;;6.65;92.34;94079.47;5090725;28;20177;-74
2022/12/31 08:44:35;;;;;;;27.47;20.37;;;;;;;6.63;92.65;94089.31;5088791;28;20231;-73
2022/12/31 08:47:25;;;;;;;24.83;20.60;;;;;;;6.70;91.50;94080.44;5088477;28;20256;-73
2022/12/31 08:49:51;;;;;;;25.57;20.73;;;;;;;6.59;92.58;94078.56;5089574;28;20244;-73
2022/12/31 08:52:22;;;;;;;25.03;20.47;;;;;;;6.78;91.71;94077.53;5091578;28;20221;-74
2022/12/31 08:54:48;;;;;;;22.23;19.90;;;;;;;6.79;91.65;94071.31;5088771;28;20301;-74
2022/12/31 08:57:19;;;;;;;23.23;20.37;;;;;;;6.91;91.44;94066.19;5089890;28;20197;-73
2022/12/31 09:00:12;;;;;;;27.30;23.50;;;;;;;6.67;91.87;94070.50;5088154;28;20217;-73
2022/12/31 09:02:47;;;;;;;24.43;20.97;;;;;;;6.72;92.05;94069.81;5088747;28;20246;-73
2022/12/31 09:05:34;;;;;;;24.47;20.43;;;;;;;7.00;91.51;94070.84;5089785;28;20230;-73
2022/12/31 09:08:15;;;;;;;27.33;21.20;;;;;;;7.39;88.63;94070.25;5090659;28;20191;-73
2022/12/31 09:10:59;;;;;;;25.97;20.63;;;;;;;7.56;87.23;94079.03;5089256;28;20228;-73
2022/12/31 09:13:36;;;;;;;24.87;20.83;;;;;;;7.23;88.97;94075.31;5090159;28;20202;-73
2022/12/31 09:16:01;;;;;;;26.00;20.90;;;;;;;7.31;89.25;94072.41;5088866;28;20232;-73
2022/12/31 09:18:28;;;;;;;22.90;20.37;;;;;;;7.23;88.31;94064.94;5090439;28;20922;-73
2022/12/31 09:20:54;;;;;;;27.37;20.73;;;;;;;7.27;89.00;94064.25;5090289;28;20240;-73
2022/12/31 09:23:20;;;;;;;26.40;21.37;;;;;;;7.61;87.20;94068.72;5089322;28;20208;-74
2022/12/31 09:26:20;;;;;;;27.77;20.20;;;;;;;7.88;86.02;94071.69;5088769;28;20244;-73
2022/12/31 09:29:10;;;;;;;24.43;20.43;;;;;;;7.92;85.57;94059.81;5086108;28;20196;-73
2022/12/31 09:31:50;;;;;;;25.77;20.97;;;;;;;7.74;86.10;94049.53;5088378;28;20211;-73
2022/12/31 09:34:34;;;;;;;25.13;19.70;;;;;;;7.87;85.96;94046.72;5088144;28;20220;-73
2022/12/31 09:37:12;;;;;;;20.63;18.17;;;;;;;7.95;85.89;94054.94;5089552;28;20215;-73
2022/12/31 09:39:44;;;;;;;23.47;19.23;;;;;;;7.90;85.48;94046.25;5089922;28;20216;-73
2022/12/31 09:42:22;;;;;;;26.27;21.20;;;;;;;7.84;86.26;94044.56;5092065;28;20196;-74
2022/12/31 09:45:34;;;;;;;22.03;19.80;;;;;;;8.00;85.58;94041.25;5089422;28;20236;-73
2022/12/31 09:48:05;;;;;;;27.57;19.87;;;;;;;7.88;86.52;94037.88;5089773;28;20219;-73
2022/12/31 09:50:37;;;;;;;22.33;20.10;;;;;;;7.98;86.12;94036.28;5089070;28;20252;-73
2022/12/31 09:53:23;;;;;;;23.97;20.87;;;;;;;8.29;84.64;94029.97;5092375;28;20212;-73
2022/12/31 09:56:03;;;;;;;32.00;21.40;;;;;;;8.44;84.24;94022.44;5060820;28;20228;-73
2022/12/31 09:58:42;;;;;;;20.77;18.57;;;;;;;8.68;82.53;94025.78;5093891;28;20188;-73
2022/12/31 10:01:32;;;;;;;23.20;17.83;;;;;;;8.62;82.07;94013.69;5091811;28;20215;-73
2022/12/31 10:04:22;;;;;;;20.87;18.17;;;;;;;8.73;81.23;94018.84;5094571;28;20242;-73
2022/12/31 10:07:06;;;;;;;20.63;17.83;;;;;;;8.72;81.21;94021.66;5093423;28;20215;-73
2022/12/31 10:10:02;;;;;;;19.17;17.17;;;;;;;8.80;80.26;94022.09;5092726;28;20236;-73
2022/12/31 10:12:56;;;;;;;22.60;16.97;;;;;;;8.69;80.72;94025.53;5092976;28;20185;-73
2022/12/31 10:15:31;;;;;;;19.27;16.93;;;;;;;8.66;81.28;94017.41;5091102;28;20220;-73
2022/12/31 10:18:07;;;;;;;19.60;17.60;;;;;;;8.73;80.46;94015.47;5092389;28;20188;-74
2022/12/31 10:20:46;;;;;;;19.73;17.73;;;;;;;8.84;79.95;94012.03;5092900;28;20295;-73
2022/12/31 10:23:36;;;;;;;19.87;17.90;;;;;;;8.60;80.50;94016.53;5091493;28;20218;-73
2022/12/31 10:26:07;;;;;;;19.13;17.00;;;;;;;8.69;80.91;94002.09;5091277;28;20216;-73
2022/12/31 10:28:48;;;;;;;19.90;17.37;;;;;;;8.56;81.83;93997.16;5092624;28;20231;-74
2022/12/31 10:31:44;;;;;;;23.20;18.20;;;;;;;8.54;82.59;94001.03;5091819;28;20287;-73
2022/12/31 10:34:15;;;;;;;22.67;18.30;;;;;;;8.41;82.21;93996.09;5091230;28;20250;-73
2022/12/31 10:36:56;;;;;;;23.87;18.20;;;;;;;8.74;81.12;93993.59;5092037;28;20197;-73
2022/12/31 10:39:34;;;;;;;25.67;19.13;;;;;;;8.67;82.79;93996.34;5091615;28;20256;-73
2022/12/31 10:42:23;;;;;;;23.03;18.57;;;;;;;8.91;81.14;93986.63;5092502;28;20196;-73
2022/12/31 10:44:57;;;;;;;32.23;20.33;;;;;;;9.27;78.42;93994.81;5091674;28;21132;-73
2022/12/31 10:48:00;;;;;;;26.73;20.63;;;;;;;9.23;79.33;93990.31;5092855;28;20196;-73
2022/12/31 10:51:20;;;;;;;25.77;21.60;;;;;;;9.26;78.80;93989.81;5092088;28;20241;-73
2022/12/31 10:54:19;;;;;;;30.60;20.80;;;;;;;9.17;80.27;93991.22;5028748;28;20195;-73
2022/12/31 10:57:06;;;;;;;29.27;21.13;;;;;;;9.53;77.31;93985.53;5092120;28;20185;-73
2022/12/31 10:59:53;;;;;;;25.93;21.73;;;;;;;9.48;77.49;93988.06;5092304;28;20247;-73
2022/12/31 11:02:24;;;;;;;30.33;21.00;;;;;;;9.42;78.51;93984.59;5091962;28;20192;-74
2022/12/31 11:05:01;;;;;;;29.47;22.13;;;;;;;9.41;77.99;93992.66;5089968;28;20240;-74
2022/12/31 11:07:35;;;;;;;27.47;22.00;;;;;;;9.49;77.96;93994.88;5127064;27;21028;-73
2022/12/31 11:10:26;;;;;;;28.00;21.87;;;;;;;9.62;77.93;93989.31;5091154;28;20235;-73
2022/12/31 11:13:10;;;;;;;32.13;22.30;;;;;;;9.80;77.10;93984.63;5091857;28;20181;-73
2022/12/31 11:15:41;;;;;;;26.53;22.57;;;;;;;9.55;77.38;93983.50;5091648;28;20252;-73
2022/12/31 11:18:45;;;;;;;35.30;23.67;;;;;;;9.64;77.43;93987.28;5091655;28;20189;-73
2022/12/31 11:21:27;;;;;;;30.20;23.00;;;;;;;9.55;77.03;93983.50;5041354;28;20228;-73
2022/12/31 11:24:11;;;;;;;29.30;22.73;;;;;;;9.41;78.08;93987.44;5037098;28;20303;-73
2022/12/31 11:26:46;;;;;;;31.43;21.80;;;;;;;9.52;77.92;93989.19;5079120;28;20185;-73
2022/12/31 11:29:32;;;;;;;28.80;22.53;;;;;;;9.81;76.70;93982.81;5087051;28;20228;-73
2022/12/31 11:32:05;;;;;;;30.83;22.83;;;;;;;9.89;75.79;93977.22;5071295;28;20185;-72
2022/12/31 11:34:36;;;;;;;34.53;23.23;;;;;;;9.71;76.99;93980.09;5071153;28;20262;-73
2022/12/31 11:37:32;;;;;;;32.17;22.77;;;;;;;9.87;76.84;93976.66;5071330;28;20177;-73
2022/12/31 11:40:00;;;;;;;29.00;23.03;;;;;;;9.62;77.99;93969.25;5082246;28;20228;-73
2022/12/31 11:42:55;;;;;;;32.17;23.93;;;;;;;9.37;78.36;93976.69;5091653;28;20199;-73
2022/12/31 11:45:45;;;;;;;32.00;23.00;;;;;;;9.49;78.44;93969.59;5090137;28;20235;-73
2022/12/31 11:48:14;;;;;;;33.83;23.10;;;;;;;9.28;79.75;93964.31;5092096;28;20248;-73
2022/12/31 11:50:57;;;;;;;34.10;23.63;;;;;;;9.12;80.14;93967.72;5090069;28;20258;-74
2022/12/31 11:53:56;;;;;;;27.90;21.60;;;;;;;9.02;80.89;93963.13;5091767;28;20184;-73
2022/12/31 11:56:30;;;;;;;36.47;24.43;;;;;;;8.98;81.66;93964.59;5070204;28;20239;-74